Pinckney, MI

00:20 EDT le 30 mai 2015 (GMT -0400)
Ann Arbor Municipal | | Change Station
CLOSE
Current Station
Aéroport
Location: Ann Arbor,
Altitude: 837 ft
Stations météo à proximité

Alt. 837 ft 42.22 °N, 83.74 °W | Updated 27 minutes ago

Ciel dégagé
Ciel dégagé
75 ° F
Paraît 75 ° F
N
9
Vent Variable Vent de SSO

Aujourd'hui
Haut(e) -- | Bas -- ° F
--% Risque de précip.
Hier
Haut(e) -- | Bas -- ° F
Precip. -- pouce
6:02 AM 9:04 PM
Lune gibbeuse croissante, 88% visible
Pression 29.96 pouce
Visibilité 10.0 Miles terrestres
Nuages Couvert 10000 ft
Point de rosée 65 ° F
Humidité 71%
Précipitations 0.00 pouce
Profondeur de la couche neigeuse Non disponible.
UV 0 sur 12
Pollen 8.00 sur 12
Qualité de l'air Non disponible.
Flu Activity Sporadic
METAR KARB 300353Z AUTO 20008KT 10SM OVC100 24/18 A2998 RMK AO2 SLP146 T02390183

More Conditions Fewer Conditions

Pression 29.96 pouce
Visibilité 10.0 Miles terrestres
Nuages Couvert 10000 ft
Point de rosée 65 ° F
Humidité 71%
Précipitations 0.00 pouce
Profondeur de la couche neigeuse Non disponible.
UV 0 sur 12
Pollen 8.00 sur 12
Qualité de l'air Non disponible.
Flu Activity Sporadic
METAR KARB 300353Z AUTO 20008KT 10SM OVC100 24/18 A2998 RMK AO2 SLP146 T02390183

More Conditions Fewer Conditions

10-Day Weather Forecast

Almanac

Astronomie

May. 30, 2015 Lever Coucher
Temps réel
Crépuscule civil
Crépuscule nautique
Crépuscule astronomique
Lune
Durée de lumière visible
Longueur du jour
Tomorrow will be .
, % of the Moon is Illuminated

Extrêmes aujourd'hui

State Highs State Lows

Community

WunderPhotos

Upload Photos

1,825,451 Photos téléchargées !

WunderBlogs® & News

Nearby

Qualité de l'air

  Qualité de l'air Indice de la qualité de l'air Polluant
Not available.

Épaisseur de neige

Station Depth Altitude

Activité sismique

Ville Distance Mag. Time & Date
Minimum magnitude displayed is 2.5.

Températures des eaux côtières

Lieu Température

Stations

Stations météo à proximité

Emplacement de la station Température Refroidissement éolien Point de rosée Humidité Vent Precip. Alt. Mise à jour Type